sensor_id;sensor_type;location;lat;lon;timestamp;P1;P2;P0
76304;PMS7003;65111;50.536;19.204;2023-03-14T00:02:09;7.00;4.00;3.33
76304;PMS7003;65111;50.536;19.204;2023-03-14T00:04:36;4.50;4.00;4.00
76304;PMS7003;65111;50.536;19.204;2023-03-14T00:07:02;5.00;5.00;2.00
76304;PMS7003;65111;50.536;19.204;2023-03-14T00:09:28;3.33;3.33;1.33
76304;PMS7003;65111;50.536;19.204;2023-03-14T00:11:55;4.33;4.00;2.00
76304;PMS7003;65111;50.536;19.204;2023-03-14T00:14:22;8.00;7.00;4.00
76304;PMS7003;65111;50.536;19.204;2023-03-14T00:16:48;4.00;1.00;1.00
76304;PMS7003;65111;50.536;19.204;2023-03-14T00:19:14;7.33;7.00;4.67
76304;PMS7003;65111;50.536;19.204;2023-03-14T00:21:40;4.00;4.00;2.00
76304;PMS7003;65111;50.536;19.204;2023-03-14T00:24:06;4.00;4.00;2.00
76304;PMS7003;65111;50.536;19.204;2023-03-14T00:26:33;4.00;4.00;2.00
76304;PMS7003;65111;50.536;19.204;2023-03-14T00:28:59;4.00;2.00;2.00
76304;PMS7003;65111;50.536;19.204;2023-03-14T00:31:25;5.00;4.00;2.00
76304;PMS7003;65111;50.536;19.204;2023-03-14T00:33:51;1.00;1.00;1.00
76304;PMS7003;65111;50.536;19.204;2023-03-14T00:36:18;3.50;3.00;2.00
76304;PMS7003;65111;50.536;19.204;2023-03-14T00:38:49;4.00;4.00;4.00
76304;PMS7003;65111;50.536;19.204;2023-03-14T00:41:20;7.00;4.33;2.67
76304;PMS7003;65111;50.536;19.204;2023-03-14T00:43:51;4.00;4.00;2.00
76304;PMS7003;65111;50.536;19.204;2023-03-14T00:46:17;10.00;5.00;4.00
76304;PMS7003;65111;50.536;19.204;2023-03-14T00:48:44;6.00;4.00;2.00
76304;PMS7003;65111;50.536;19.204;2023-03-14T00:51:11;3.00;3.00;2.00
76304;PMS7003;65111;50.536;19.204;2023-03-14T00:53:40;4.00;4.00;2.00
76304;PMS7003;65111;50.536;19.204;2023-03-14T00:56:08;2.00;1.00;0.00
76304;PMS7003;65111;50.536;19.204;2023-03-14T00:58:35;9.00;4.00;3.00
76304;PMS7003;65111;50.536;19.204;2023-03-14T01:03:50;4.00;4.00;2.00
76304;PMS7003;65111;50.536;19.204;2023-03-14T01:06:18;2.00;2.00;2.00
76304;PMS7003;65111;50.536;19.204;2023-03-14T01:08:46;4.00;3.00;2.00
76304;PMS7003;65111;50.536;19.204;2023-03-14T01:11:17;4.00;4.00;4.00
76304;PMS7003;65111;50.536;19.204;2023-03-14T01:13:45;2.50;2.50;1.50
76304;PMS7003;65111;50.536;19.204;2023-03-14T01:16:11;7.00;5.50;3.00
76304;PMS7003;65111;50.536;19.204;2023-03-14T01:18:39;5.33;4.67;2.33
76304;PMS7003;65111;50.536;19.204;2023-03-14T01:21:14;5.67;5.67;4.67
76304;PMS7003;65111;50.536;19.204;2023-03-14T01:23:45;12.00;10.00;6.00
76304;PMS7003;65111;50.536;19.204;2023-03-14T01:26:13;9.00;8.00;5.00
76304;PMS7003;65111;50.536;19.204;2023-03-14T01:28:41;6.33;4.00;3.67
76304;PMS7003;65111;50.536;19.204;2023-03-14T01:31:08;7.00;4.00;3.00
76304;PMS7003;65111;50.536;19.204;2023-03-14T01:33:35;4.67;3.33;3.00
76304;PMS7003;65111;50.536;19.204;2023-03-14T01:36:02;9.00;6.00;4.00
76304;PMS7003;65111;50.536;19.204;2023-03-14T01:38:29;9.00;9.00;6.00
76304;PMS7003;65111;50.536;19.204;2023-03-14T01:40:56;12.50;10.00;7.00
76304;PMS7003;65111;50.536;19.204;2023-03-14T01:43:23;10.00;9.33;6.33
76304;PMS7003;65111;50.536;19.204;2023-03-14T01:51:20;7.00;7.00;6.00
76304;PMS7003;65111;50.536;19.204;2023-03-14T01:53:49;12.00;9.00;4.00
76304;PMS7003;65111;50.536;19.204;2023-03-14T01:56:18;6.00;6.00;4.00
76304;PMS7003;65111;50.536;19.204;2023-03-14T01:58:45;8.00;7.00;5.00
76304;PMS7003;65111;50.536;19.204;2023-03-14T02:01:16;7.00;7.00;4.00
76304;PMS7003;65111;50.536;19.204;2023-03-14T02:03:47;1.00;0.00;0.00
76304;PMS7003;65111;50.536;19.204;2023-03-14T02:06:19;7.00;6.00;4.00
76304;PMS7003;65111;50.536;19.204;2023-03-14T02:08:50;7.00;7.00;4.00
76304;PMS7003;65111;50.536;19.204;2023-03-14T02:11:17;19.67;9.00;6.00
76304;PMS7003;65111;50.536;19.204;2023-03-14T02:13:43;9.00;7.00;4.00
76304;PMS7003;65111;50.536;19.204;2023-03-14T02:16:10;3.50;3.50;3.00
76304;PMS7003;65111;50.536;19.204;2023-03-14T02:18:37;6.00;6.00;4.00
76304;PMS7003;65111;50.536;19.204;2023-03-14T02:27:18;12.00;10.00;6.50
76304;PMS7003;65111;50.536;19.204;2023-03-14T02:29:51;4.00;4.00;1.00
76304;PMS7003;65111;50.536;19.204;2023-03-14T02:32:20;3.00;1.00;1.00
76304;PMS7003;65111;50.536;19.204;2023-03-14T02:34:49;3.00;3.00;3.00
76304;PMS7003;65111;50.536;19.204;2023-03-14T02:37:20;5.33;5.33;4.00
76304;PMS7003;65111;50.536;19.204;2023-03-14T02:39:49;3.00;3.00;3.00
76304;PMS7003;65111;50.536;19.204;2023-03-14T02:42:15;3.67;3.00;3.00
76304;PMS7003;65111;50.536;19.204;2023-03-14T02:44:51;6.50;3.50;3.00
76304;PMS7003;65111;50.536;19.204;2023-03-14T02:47:46;4.67;4.67;4.00
76304;PMS7003;65111;50.536;19.204;2023-03-14T02:50:22;3.00;3.00;1.00
76304;PMS7003;65111;50.536;19.204;2023-03-14T02:52:51;2.00;2.00;2.00
76304;PMS7003;65111;50.536;19.204;2023-03-14T02:55:21;4.00;1.00;1.00
76304;PMS7003;65111;50.536;19.204;2023-03-14T02:57:48;0.00;0.00;0.00
76304;PMS7003;65111;50.536;19.204;2023-03-14T03:00:14;1.00;1.00;1.00
76304;PMS7003;65111;50.536;19.204;2023-03-14T03:02:40;0.67;0.67;0.67
76304;PMS7003;65111;50.536;19.204;2023-03-14T03:05:06;1.00;1.00;1.00
76304;PMS7003;65111;50.536;19.204;2023-03-14T03:07:32;0.50;0.50;0.00
76304;PMS7003;65111;50.536;19.204;2023-03-14T03:09:58;1.00;0.00;0.00
76304;PMS7003;65111;50.536;19.204;2023-03-14T03:12:24;0.50;0.50;0.00
76304;PMS7003;65111;50.536;19.204;2023-03-14T03:14:50;3.00;1.00;0.00
76304;PMS7003;65111;50.536;19.204;2023-03-14T03:17:17;3.00;3.00;1.00
76304;PMS7003;65111;50.536;19.204;2023-03-14T03:19:42;1.00;1.00;1.00
76304;PMS7003;65111;50.536;19.204;2023-03-14T03:22:08;0.00;0.00;0.00
76304;PMS7003;65111;50.536;19.204;2023-03-14T03:24:34;1.00;1.00;0.00
76304;PMS7003;65111;50.536;19.204;2023-03-14T03:27:00;3.00;0.00;0.00
76304;PMS7003;65111;50.536;19.204;2023-03-14T03:29:26;1.00;1.00;0.00
76304;PMS7003;65111;50.536;19.204;2023-03-14T03:31:52;1.00;0.00;0.00
76304;PMS7003;65111;50.536;19.204;2023-03-14T03:34:18;1.00;1.00;0.00
76304;PMS7003;65111;50.536;19.204;2023-03-14T03:36:44;1.00;1.00;0.00
76304;PMS7003;65111;50.536;19.204;2023-03-14T03:39:10;0.00;0.00;0.00
76304;PMS7003;65111;50.536;19.204;2023-03-14T03:41:36;0.00;0.00;0.00
76304;PMS7003;65111;50.536;19.204;2023-03-14T03:44:02;4.00;3.00;3.00
76304;PMS7003;65111;50.536;19.204;2023-03-14T03:46:28;2.00;2.00;1.00
76304;PMS7003;65111;50.536;19.204;2023-03-14T03:48:55;3.00;1.00;1.00
76304;PMS7003;65111;50.536;19.204;2023-03-14T03:51:22;1.00;1.00;0.67
76304;PMS7003;65111;50.536;19.204;2023-03-14T03:53:48;0.00;0.00;0.00
76304;PMS7003;65111;50.536;19.204;2023-03-14T03:56:14;4.00;1.00;1.00
76304;PMS7003;65111;50.536;19.204;2023-03-14T03:58:40;1.00;1.00;1.00
76304;PMS7003;65111;50.536;19.204;2023-03-14T04:01:07;1.00;1.00;1.00
76304;PMS7003;65111;50.536;19.204;2023-03-14T04:03:34;4.00;1.00;1.00
76304;PMS7003;65111;50.536;19.204;2023-03-14T04:06:02;4.00;1.00;1.00
76304;PMS7003;65111;50.536;19.204;2023-03-14T04:08:30;0.00;0.00;0.00
76304;PMS7003;65111;50.536;19.204;2023-03-14T04:10:57;4.00;3.00;1.00
76304;PMS7003;65111;50.536;19.204;2023-03-14T04:13:23;2.00;2.00;2.00
76304;PMS7003;65111;50.536;19.204;2023-03-14T04:15:50;3.00;3.00;1.00
76304;PMS7003;65111;50.536;19.204;2023-03-14T04:18:17;2.00;2.00;2.00
76304;PMS7003;65111;50.536;19.204;2023-03-14T04:20:43;3.00;2.33;1.00
76304;PMS7003;65111;50.536;19.204;2023-03-14T04:23:09;3.00;3.00;3.00
76304;PMS7003;65111;50.536;19.204;2023-03-14T04:25:36;1.00;1.00;1.00
76304;PMS7003;65111;50.536;19.204;2023-03-14T04:28:02;2.67;2.33;2.33
76304;PMS7003;65111;50.536;19.204;2023-03-14T04:30:29;1.00;1.00;1.00
76304;PMS7003;65111;50.536;19.204;2023-03-14T04:32:55;1.00;1.00;1.00
76304;PMS7003;65111;50.536;19.204;2023-03-14T04:35:21;1.00;1.00;0.00
76304;PMS7003;65111;50.536;19.204;2023-03-14T04:37:47;3.33;3.00;1.00
76304;PMS7003;65111;50.536;19.204;2023-03-14T04:40:14;1.00;1.00;0.00
76304;PMS7003;65111;50.536;19.204;2023-03-14T04:42:41;3.00;3.00;1.00
76304;PMS7003;65111;50.536;19.204;2023-03-14T04:45:07;3.00;1.00;0.67
76304;PMS7003;65111;50.536;19.204;2023-03-14T04:47:33;4.00;3.00;3.00
76304;PMS7003;65111;50.536;19.204;2023-03-14T04:50:00;4.00;3.00;1.00
76304;PMS7003;65111;50.536;19.204;2023-03-14T04:52:26;3.00;3.00;1.00
76304;PMS7003;65111;50.536;19.204;2023-03-14T04:54:52;1.00;1.00;1.00
76304;PMS7003;65111;50.536;19.204;2023-03-14T04:57:18;3.00;1.00;1.00
76304;PMS7003;65111;50.536;19.204;2023-03-14T04:59:44;1.00;1.00;1.00
76304;PMS7003;65111;50.536;19.204;2023-03-14T05:02:10;7.00;3.00;3.00
76304;PMS7003;65111;50.536;19.204;2023-03-14T05:04:36;2.33;2.33;1.00
76304;PMS7003;65111;50.536;19.204;2023-03-14T05:07:02;4.67;4.67;3.00
76304;PMS7003;65111;50.536;19.204;2023-03-14T05:09:28;4.00;3.00;2.00
76304;PMS7003;65111;50.536;19.204;2023-03-14T05:11:54;3.50;3.50;2.00
76304;PMS7003;65111;50.536;19.204;2023-03-14T05:14:19;2.50;1.00;1.00
76304;PMS7003;65111;50.536;19.204;2023-03-14T05:16:45;3.00;3.00;3.00
76304;PMS7003;65111;50.536;19.204;2023-03-14T05:19:11;3.00;1.00;1.00
76304;PMS7003;65111;50.536;19.204;2023-03-14T05:21:37;3.33;3.00;3.00
76304;PMS7003;65111;50.536;19.204;2023-03-14T05:24:03;4.00;4.00;1.00
76304;PMS7003;65111;50.536;19.204;2023-03-14T05:26:30;5.00;5.00;4.00
76304;PMS7003;65111;50.536;19.204;2023-03-14T05:28:56;5.50;4.00;2.50
76304;PMS7003;65111;50.536;19.204;2023-03-14T05:31:21;4.50;4.50;2.00
76304;PMS7003;65111;50.536;19.204;2023-03-14T05:33:47;4.00;4.00;2.50
76304;PMS7003;65111;50.536;19.204;2023-03-14T05:36:13;4.00;4.00;3.67
76304;PMS7003;65111;50.536;19.204;2023-03-14T05:38:39;5.00;5.00;4.00
76304;PMS7003;65111;50.536;19.204;2023-03-14T05:41:05;10.00;6.67;3.67
76304;PMS7003;65111;50.536;19.204;2023-03-14T05:43:31;10.00;9.33;6.00
76304;PMS7003;65111;50.536;19.204;2023-03-14T05:45:57;14.00;13.00;8.67
76304;PMS7003;65111;50.536;19.204;2023-03-14T05:48:23;14.00;13.67;11.33
76304;PMS7003;65111;50.536;19.204;2023-03-14T05:50:54;8.33;8.33;5.33
76304;PMS7003;65111;50.536;19.204;2023-03-14T05:53:21;8.00;8.00;7.00
76304;PMS7003;65111;50.536;19.204;2023-03-14T05:55:46;8.00;5.00;5.00
76304;PMS7003;65111;50.536;19.204;2023-03-14T05:58:12;11.00;7.00;5.00
76304;PMS7003;65111;50.536;19.204;2023-03-14T06:00:38;14.00;10.00;7.00
76304;PMS7003;65111;50.536;19.204;2023-03-14T06:03:04;14.00;11.00;8.00
76304;PMS7003;65111;50.536;19.204;2023-03-14T06:05:30;10.50;10.00;7.00
76304;PMS7003;65111;50.536;19.204;2023-03-14T06:07:56;12.00;10.00;7.00
76304;PMS7003;65111;50.536;19.204;2023-03-14T06:10:22;8.67;8.00;5.00
76304;PMS7003;65111;50.536;19.204;2023-03-14T06:12:48;11.67;7.33;4.00
76304;PMS7003;65111;50.536;19.204;2023-03-14T06:15:14;8.50;8.50;7.00
76304;PMS7003;65111;50.536;19.204;2023-03-14T06:17:39;9.00;8.00;7.00
76304;PMS7003;65111;50.536;19.204;2023-03-14T06:20:05;9.00;8.00;6.00
76304;PMS7003;65111;50.536;19.204;2023-03-14T06:22:32;9.00;9.00;5.33
76304;PMS7003;65111;50.536;19.204;2023-03-14T06:24:58;8.50;7.00;5.00
76304;PMS7003;65111;50.536;19.204;2023-03-14T06:27:24;12.00;9.00;7.33
76304;PMS7003;65111;50.536;19.204;2023-03-14T06:29:49;9.00;8.00;5.50
76304;PMS7003;65111;50.536;19.204;2023-03-14T06:32:15;11.00;11.00;8.67
76304;PMS7003;65111;50.536;19.204;2023-03-14T06:34:41;12.00;10.00;8.00
76304;PMS7003;65111;50.536;19.204;2023-03-14T06:37:07;6.00;6.00;5.00
76304;PMS7003;65111;50.536;19.204;2023-03-14T06:39:33;9.50;9.50;8.00
76304;PMS7003;65111;50.536;19.204;2023-03-14T06:41:59;11.33;9.00;6.00
76304;PMS7003;65111;50.536;19.204;2023-03-14T06:44:25;7.67;7.67;5.00
76304;PMS7003;65111;50.536;19.204;2023-03-14T06:46:51;10.00;10.00;6.00
76304;PMS7003;65111;50.536;19.204;2023-03-14T06:49:17;12.50;12.50;7.50
76304;PMS7003;65111;50.536;19.204;2023-03-14T06:51:42;13.00;13.00;9.00
76304;PMS7003;65111;50.536;19.204;2023-03-14T06:54:08;7.00;7.00;6.00
76304;PMS7003;65111;50.536;19.204;2023-03-14T06:56:34;8.50;8.00;6.00
76304;PMS7003;65111;50.536;19.204;2023-03-14T06:59:00;9.00;8.00;6.00
76304;PMS7003;65111;50.536;19.204;2023-03-14T07:01:27;9.00;9.00;5.00
76304;PMS7003;65111;50.536;19.204;2023-03-14T07:03:55;16.00;11.00;8.00
76304;PMS7003;65111;50.536;19.204;2023-03-14T07:06:21;11.00;11.00;7.00
76304;PMS7003;65111;50.536;19.204;2023-03-14T07:08:48;11.00;11.00;7.00
76304;PMS7003;65111;50.536;19.204;2023-03-14T07:11:14;13.00;11.00;8.00
76304;PMS7003;65111;50.536;19.204;2023-03-14T07:13:40;8.00;8.00;7.00
76304;PMS7003;65111;50.536;19.204;2023-03-14T07:16:06;11.00;9.00;7.00
76304;PMS7003;65111;50.536;19.204;2023-03-14T07:18:33;9.67;9.00;7.33
76304;PMS7003;65111;50.536;19.204;2023-03-14T07:20:59;13.33;12.00;7.00
76304;PMS7003;65111;50.536;19.204;2023-03-14T07:23:25;13.00;11.00;7.50
76304;PMS7003;65111;50.536;19.204;2023-03-14T07:25:51;12.00;8.50;6.00
76304;PMS7003;65111;50.536;19.204;2023-03-14T07:28:19;9.00;9.00;6.00
76304;PMS7003;65111;50.536;19.204;2023-03-14T07:30:46;17.00;11.67;8.33
76304;PMS7003;65111;50.536;19.204;2023-03-14T07:33:13;9.00;9.00;6.00
76304;PMS7003;65111;50.536;19.204;2023-03-14T07:35:39;11.50;9.00;6.00
76304;PMS7003;65111;50.536;19.204;2023-03-14T07:38:04;8.00;8.00;5.00
76304;PMS7003;65111;50.536;19.204;2023-03-14T07:40:30;8.33;7.67;4.00
76304;PMS7003;65111;50.536;19.204;2023-03-14T07:42:56;9.00;7.00;5.50
76304;PMS7003;65111;50.536;19.204;2023-03-14T07:45:22;9.00;7.00;5.50
76304;PMS7003;65111;50.536;19.204;2023-03-14T07:47:48;7.00;6.00;4.50
76304;PMS7003;65111;50.536;19.204;2023-03-14T07:50:14;8.00;8.00;4.00
76304;PMS7003;65111;50.536;19.204;2023-03-14T07:52:40;4.00;4.00;4.00
76304;PMS7003;65111;50.536;19.204;2023-03-14T07:55:07;6.00;5.00;4.00
76304;PMS7003;65111;50.536;19.204;2023-03-14T07:57:33;4.00;4.00;2.67
76304;PMS7003;65111;50.536;19.204;2023-03-14T07:59:59;8.00;5.00;4.00
76304;PMS7003;65111;50.536;19.204;2023-03-14T08:02:25;6.00;5.00;4.00
76304;PMS7003;65111;50.536;19.204;2023-03-14T08:04:51;8.00;6.50;4.50
76304;PMS7003;65111;50.536;19.204;2023-03-14T08:07:17;4.00;4.00;3.00
76304;PMS7003;65111;50.536;19.204;2023-03-14T08:09:43;6.00;4.67;4.00
76304;PMS7003;65111;50.536;19.204;2023-03-14T08:12:09;6.50;6.00;4.00
76304;PMS7003;65111;50.536;19.204;2023-03-14T08:14:34;3.00;3.00;2.00
76304;PMS7003;65111;50.536;19.204;2023-03-14T08:17:00;5.00;5.00;4.00
76304;PMS7003;65111;50.536;19.204;2023-03-14T08:19:26;6.00;5.00;4.00
76304;PMS7003;65111;50.536;19.204;2023-03-14T08:21:52;7.00;5.00;5.00
76304;PMS7003;65111;50.536;19.204;2023-03-14T08:24:18;5.00;5.00;4.00
76304;PMS7003;65111;50.536;19.204;2023-03-14T08:26:44;8.00;5.00;4.00
76304;PMS7003;65111;50.536;19.204;2023-03-14T08:29:10;6.00;5.00;4.00
76304;PMS7003;65111;50.536;19.204;2023-03-14T08:31:38;6.50;6.50;4.00
76304;PMS7003;65111;50.536;19.204;2023-03-14T08:34:04;6.00;6.00;5.00
76304;PMS7003;65111;50.536;19.204;2023-03-14T08:36:31;6.50;6.00;5.00
76304;PMS7003;65111;50.536;19.204;2023-03-14T08:38:57;6.00;6.00;3.50
76304;PMS7003;65111;50.536;19.204;2023-03-14T08:41:23;5.00;4.00;3.00
76304;PMS7003;65111;50.536;19.204;2023-03-14T08:43:49;4.00;4.00;3.00
76304;PMS7003;65111;50.536;19.204;2023-03-14T08:46:15;5.00;5.00;4.00
76304;PMS7003;65111;50.536;19.204;2023-03-14T08:48:40;6.00;6.00;5.00
76304;PMS7003;65111;50.536;19.204;2023-03-14T08:51:10;8.00;7.00;5.00
76304;PMS7003;65111;50.536;19.204;2023-03-14T08:53:38;8.00;6.00;5.00
76304;PMS7003;65111;50.536;19.204;2023-03-14T08:56:04;6.00;5.50;4.50
76304;PMS7003;65111;50.536;19.204;2023-03-14T08:58:32;8.00;8.00;5.00
76304;PMS7003;65111;50.536;19.204;2023-03-14T09:00:58;8.50;6.00;4.00
76304;PMS7003;65111;50.536;19.204;2023-03-14T09:03:25;5.50;5.50;5.00
76304;PMS7003;65111;50.536;19.204;2023-03-14T09:05:51;8.00;6.50;4.50
76304;PMS7003;65111;50.536;19.204;2023-03-14T09:08:18;6.00;6.00;4.50
76304;PMS7003;65111;50.536;19.204;2023-03-14T09:10:44;5.50;5.50;4.00
76304;PMS7003;65111;50.536;19.204;2023-03-14T09:13:09;8.00;7.00;5.00
76304;PMS7003;65111;50.536;19.204;2023-03-14T09:15:35;8.00;7.00;4.00
76304;PMS7003;65111;50.536;19.204;2023-03-14T09:18:01;7.00;7.00;6.00
76304;PMS7003;65111;50.536;19.204;2023-03-14T09:20:27;7.00;7.00;5.00
76304;PMS7003;65111;50.536;19.204;2023-03-14T09:22:53;5.00;4.00;1.00
76304;PMS7003;65111;50.536;19.204;2023-03-14T09:25:19;5.00;5.00;4.00
76304;PMS7003;65111;50.536;19.204;2023-03-14T09:27:45;9.50;8.00;5.00
76304;PMS7003;65111;50.536;19.204;2023-03-14T09:30:11;12.00;7.50;6.00
76304;PMS7003;65111;50.536;19.204;2023-03-14T09:32:37;8.00;5.50;4.50
76304;PMS7003;65111;50.536;19.204;2023-03-14T09:35:03;10.00;8.00;6.00
76304;PMS7003;65111;50.536;19.204;2023-03-14T09:37:30;1.00;1.00;1.00
76304;PMS7003;65111;50.536;19.204;2023-03-14T09:39:56;7.00;7.00;4.00
76304;PMS7003;65111;50.536;19.204;2023-03-14T09:42:23;6.50;6.00;4.00
76304;PMS7003;65111;50.536;19.204;2023-03-14T09:45:02;6.50;6.50;4.00
76304;PMS7003;65111;50.536;19.204;2023-03-14T09:47:33;5.00;5.00;2.50
76304;PMS7003;65111;50.536;19.204;2023-03-14T09:50:00;7.00;7.00;4.50
76304;PMS7003;65111;50.536;19.204;2023-03-14T09:52:32;7.00;6.00;6.00
76304;PMS7003;65111;50.536;19.204;2023-03-14T09:55:05;10.00;8.00;6.00
76304;PMS7003;65111;50.536;19.204;2023-03-14T09:57:36;6.00;6.00;5.00
76304;PMS7003;65111;50.536;19.204;2023-03-14T10:00:05;6.00;6.00;4.00
76304;PMS7003;65111;50.536;19.204;2023-03-14T10:02:40;7.67;6.00;5.00
76304;PMS7003;65111;50.536;19.204;2023-03-14T10:05:14;6.00;6.00;5.00
76304;PMS7003;65111;50.536;19.204;2023-03-14T10:07:44;6.00;6.00;6.00
76304;PMS7003;65111;50.536;19.204;2023-03-14T10:10:11;9.00;6.00;4.00
76304;PMS7003;65111;50.536;19.204;2023-03-14T10:12:41;7.50;4.00;3.00
76304;PMS7003;65111;50.536;19.204;2023-03-14T10:15:10;6.00;6.00;4.00
76304;PMS7003;65111;50.536;19.204;2023-03-14T10:17:43;7.50;5.00;3.50
76304;PMS7003;65111;50.536;19.204;2023-03-14T10:23:02;5.00;5.00;4.00
76304;PMS7003;65111;50.536;19.204;2023-03-14T10:34:39;8.00;7.00;5.00
76304;PMS7003;65111;50.536;19.204;2023-03-14T10:37:06;6.50;6.50;3.00
76304;PMS7003;65111;50.536;19.204;2023-03-14T10:39:52;5.00;5.00;3.00
76304;PMS7003;65111;50.536;19.204;2023-03-14T10:42:21;5.00;4.00;2.50
76304;PMS7003;65111;50.536;19.204;2023-03-14T10:44:56;6.00;6.00;5.00
76304;PMS7003;65111;50.536;19.204;2023-03-14T10:47:25;8.00;6.00;4.00
76304;PMS7003;65111;50.536;19.204;2023-03-14T10:49:54;9.00;7.50;4.00
76304;PMS7003;65111;50.536;19.204;2023-03-14T10:52:22;7.00;6.00;4.00
76304;PMS7003;65111;50.536;19.204;2023-03-14T10:55:03;5.00;5.00;3.00
76304;PMS7003;65111;50.536;19.204;2023-03-14T10:57:38;6.00;5.00;5.00
76304;PMS7003;65111;50.536;19.204;2023-03-14T11:00:05;6.00;6.00;5.00
76304;PMS7003;65111;50.536;19.204;2023-03-14T11:08:38;4.50;3.00;2.00
76304;PMS7003;65111;50.536;19.204;2023-03-14T11:11:25;4.00;4.00;2.00
76304;PMS7003;65111;50.536;19.204;2023-03-14T11:13:58;6.00;5.50;4.00
76304;PMS7003;65111;50.536;19.204;2023-03-14T11:22:16;6.00;4.00;2.50
76304;PMS7003;65111;50.536;19.204;2023-03-14T11:24:49;5.00;5.00;4.00
76304;PMS7003;65111;50.536;19.204;2023-03-14T11:27:22;5.33;5.00;4.00
76304;PMS7003;65111;50.536;19.204;2023-03-14T11:29:54;9.00;5.00;5.00
76304;PMS7003;65111;50.536;19.204;2023-03-14T11:35:14;6.00;6.00;5.00
76304;PMS7003;65111;50.536;19.204;2023-03-14T11:40:53;6.00;5.00;2.67
76304;PMS7003;65111;50.536;19.204;2023-03-14T11:45:52;9.00;8.67;6.00
76304;PMS7003;65111;50.536;19.204;2023-03-14T11:51:14;8.50;8.50;5.00
76304;PMS7003;65111;50.536;19.204;2023-03-14T11:56:29;11.00;9.67;5.00
76304;PMS7003;65111;50.536;19.204;2023-03-14T11:59:01;8.00;7.00;5.00
76304;PMS7003;65111;50.536;19.204;2023-03-14T12:01:34;9.00;9.00;7.67
76304;PMS7003;65111;50.536;19.204;2023-03-14T12:04:13;5.00;5.00;5.00
76304;PMS7003;65111;50.536;19.204;2023-03-14T12:07:03;7.00;6.00;5.00
76304;PMS7003;65111;50.536;19.204;2023-03-14T12:09:43;9.00;7.50;5.00
76304;PMS7003;65111;50.536;19.204;2023-03-14T12:12:12;5.00;5.00;3.33
76304;PMS7003;65111;50.536;19.204;2023-03-14T12:14:52;5.50;5.50;5.00
76304;PMS7003;65111;50.536;19.204;2023-03-14T12:17:21;6.50;6.50;4.00
76304;PMS7003;65111;50.536;19.204;2023-03-14T12:20:01;5.50;5.50;4.00
76304;PMS7003;65111;50.536;19.204;2023-03-14T12:22:42;7.00;4.00;3.00
76304;PMS7003;65111;50.536;19.204;2023-03-14T12:30:25;5.00;3.50;3.50
76304;PMS7003;65111;50.536;19.204;2023-03-14T12:35:35;5.00;5.00;4.00
76304;PMS7003;65111;50.536;19.204;2023-03-14T12:38:03;5.00;5.00;3.50
76304;PMS7003;65111;50.536;19.204;2023-03-14T12:40:37;5.50;5.00;3.50
76304;PMS7003;65111;50.536;19.204;2023-03-14T12:43:23;9.00;5.00;3.00
76304;PMS7003;65111;50.536;19.204;2023-03-14T12:48:39;5.00;5.00;5.00
76304;PMS7003;65111;50.536;19.204;2023-03-14T12:51:13;5.67;5.00;3.33
76304;PMS7003;65111;50.536;19.204;2023-03-14T13:07:28;10.67;9.00;8.33
76304;PMS7003;65111;50.536;19.204;2023-03-14T13:10:19;10.50;7.00;5.00
76304;PMS7003;65111;50.536;19.204;2023-03-14T13:12:51;9.00;7.00;5.00
76304;PMS7003;65111;50.536;19.204;2023-03-14T13:15:24;12.00;9.00;6.00
76304;PMS7003;65111;50.536;19.204;2023-03-14T13:17:55;12.67;10.00;6.00
76304;PMS7003;65111;50.536;19.204;2023-03-14T13:22:55;16.00;12.50;10.00
76304;PMS7003;65111;50.536;19.204;2023-03-14T13:25:21;7.00;7.00;5.00
76304;PMS7003;65111;50.536;19.204;2023-03-14T13:27:48;10.00;10.00;6.00
76304;PMS7003;65111;50.536;19.204;2023-03-14T13:30:28;12.33;11.33;6.67
76304;PMS7003;65111;50.536;19.204;2023-03-14T13:33:02;10.00;8.50;5.50
76304;PMS7003;65111;50.536;19.204;2023-03-14T13:35:38;12.00;10.00;8.00
76304;PMS7003;65111;50.536;19.204;2023-03-14T13:38:18;13.67;9.67;8.33
76304;PMS7003;65111;50.536;19.204;2023-03-14T13:40:46;12.00;12.00;9.00
76304;PMS7003;65111;50.536;19.204;2023-03-14T13:43:15;12.00;9.67;7.33
76304;PMS7003;65111;50.536;19.204;2023-03-14T13:46:13;9.00;8.00;5.00
76304;PMS7003;65111;50.536;19.204;2023-03-14T13:49:01;6.67;6.67;5.00
76304;PMS7003;65111;50.536;19.204;2023-03-14T13:51:29;9.00;8.33;8.00
76304;PMS7003;65111;50.536;19.204;2023-03-14T13:54:00;8.00;6.00;5.00
76304;PMS7003;65111;50.536;19.204;2023-03-14T13:56:29;5.00;5.00;4.50
76304;PMS7003;65111;50.536;19.204;2023-03-14T13:58:57;8.00;8.00;7.00
76304;PMS7003;65111;50.536;19.204;2023-03-14T14:04:08;9.50;9.50;8.00
76304;PMS7003;65111;50.536;19.204;2023-03-14T14:09:29;7.33;7.33;5.67
76304;PMS7003;65111;50.536;19.204;2023-03-14T14:12:02;11.33;9.00;5.67
76304;PMS7003;65111;50.536;19.204;2023-03-14T14:17:14;11.00;11.00;8.50
76304;PMS7003;65111;50.536;19.204;2023-03-14T14:19:43;9.33;8.00;5.33
76304;PMS7003;65111;50.536;19.204;2023-03-14T14:22:10;16.00;12.33;9.00
76304;PMS7003;65111;50.536;19.204;2023-03-14T14:24:37;10.00;8.00;7.00
76304;PMS7003;65111;50.536;19.204;2023-03-14T14:30:01;15.33;12.00;9.00
76304;PMS7003;65111;50.536;19.204;2023-03-14T14:32:39;12.00;10.00;8.00
76304;PMS7003;65111;50.536;19.204;2023-03-14T14:35:06;11.33;11.33;7.33
76304;PMS7003;65111;50.536;19.204;2023-03-14T14:37:40;10.33;8.00;5.33
76304;PMS7003;65111;50.536;19.204;2023-03-14T14:40:09;6.67;6.00;6.00
76304;PMS7003;65111;50.536;19.204;2023-03-14T14:42:42;9.33;8.00;5.00
76304;PMS7003;65111;50.536;19.204;2023-03-14T14:45:27;5.00;5.00;4.00
76304;PMS7003;65111;50.536;19.204;2023-03-14T14:50:33;9.00;9.00;8.00
76304;PMS7003;65111;50.536;19.204;2023-03-14T14:53:03;9.00;9.00;6.00
76304;PMS7003;65111;50.536;19.204;2023-03-14T14:55:48;12.00;11.00;8.00
76304;PMS7003;65111;50.536;19.204;2023-03-14T15:00:51;12.50;12.50;9.00
76304;PMS7003;65111;50.536;19.204;2023-03-14T15:03:25;14.50;12.00;9.00
76304;PMS7003;65111;50.536;19.204;2023-03-14T15:05:55;12.33;12.33;8.00
76304;PMS7003;65111;50.536;19.204;2023-03-14T15:08:21;9.50;8.00;6.00
76304;PMS7003;65111;50.536;19.204;2023-03-14T15:10:49;13.00;13.00;9.00
76304;PMS7003;65111;50.536;19.204;2023-03-14T15:13:15;7.00;6.00;4.33
76304;PMS7003;65111;50.536;19.204;2023-03-14T15:15:41;11.00;9.00;5.67
76304;PMS7003;65111;50.536;19.204;2023-03-14T15:18:18;12.00;9.00;5.00
76304;PMS7003;65111;50.536;19.204;2023-03-14T15:20:44;11.00;9.00;4.50
76304;PMS7003;65111;50.536;19.204;2023-03-14T15:23:12;11.00;7.67;5.67
76304;PMS7003;65111;50.536;19.204;2023-03-14T15:25:40;9.50;8.00;5.50
76304;PMS7003;65111;50.536;19.204;2023-03-14T15:28:14;6.00;6.00;5.00
76304;PMS7003;65111;50.536;19.204;2023-03-14T15:30:43;8.00;6.00;4.00
76304;PMS7003;65111;50.536;19.204;2023-03-14T15:33:09;9.00;6.00;5.00
76304;PMS7003;65111;50.536;19.204;2023-03-14T15:35:35;9.00;9.00;7.00
76304;PMS7003;65111;50.536;19.204;2023-03-14T15:38:02;10.00;8.50;7.00
76304;PMS7003;65111;50.536;19.204;2023-03-14T15:40:28;14.00;11.00;8.00
76304;PMS7003;65111;50.536;19.204;2023-03-14T15:42:54;15.00;10.00;6.00
76304;PMS7003;65111;50.536;19.204;2023-03-14T15:45:20;12.33;9.00;6.67
76304;PMS7003;65111;50.536;19.204;2023-03-14T15:47:46;12.50;8.50;5.50
76304;PMS7003;65111;50.536;19.204;2023-03-14T15:50:12;12.00;12.00;8.00